createdAt,value
2023-08-24T00:00:33.674Z,25.14
2023-08-24T00:01:35.144Z,25.04
2023-08-24T00:02:36.602Z,25.01
2023-08-24T00:03:37.957Z,24.96
2023-08-24T00:04:39.385Z,24.95
2023-08-24T00:05:41.593Z,24.96
2023-08-24T00:06:42.929Z,24.97
2023-08-24T00:07:44.304Z,24.94
2023-08-24T00:08:45.656Z,24.88
2023-08-24T00:09:46.961Z,24.89
2023-08-24T00:10:48.366Z,24.89
2023-08-24T00:11:49.738Z,24.89
2023-08-24T00:12:51.072Z,24.87
2023-08-24T00:13:52.878Z,24.77
2023-08-24T00:14:54.199Z,24.72
2023-08-24T00:15:55.673Z,24.72
2023-08-24T00:16:57.079Z,24.74
2023-08-24T00:17:58.449Z,24.74
2023-08-24T00:18:59.990Z,24.73
2023-08-24T00:20:01.470Z,24.68
2023-08-24T00:21:02.828Z,24.64
2023-08-24T00:22:04.196Z,24.63
2023-08-24T00:23:05.612Z,24.59
2023-08-24T00:24:07.145Z,24.60
2023-08-24T00:25:09.037Z,24.59
2023-08-24T00:26:10.559Z,24.58
2023-08-24T00:27:12.070Z,24.58
2023-08-24T00:28:13.421Z,24.55
2023-08-24T00:29:14.822Z,24.54
2023-08-24T00:30:16.494Z,24.54
2023-08-24T00:31:18.379Z,24.54
2023-08-24T00:32:19.750Z,24.53
2023-08-24T00:33:21.106Z,24.51
2023-08-24T00:34:22.526Z,24.53
2023-08-24T00:35:23.905Z,24.50
2023-08-24T00:36:26.631Z,24.50
2023-08-24T00:37:28.112Z,24.47
2023-08-24T00:38:29.714Z,24.47
2023-08-24T00:39:32.738Z,24.48
2023-08-24T00:40:34.796Z,24.51
2023-08-24T00:41:36.181Z,24.48
2023-08-24T00:42:45.266Z,24.48
2023-08-24T00:43:46.559Z,24.45
2023-08-24T00:44:48.238Z,24.42
2023-08-24T00:45:50.827Z,24.40
2023-08-24T00:46:53.332Z,24.39
2023-08-24T00:47:54.892Z,24.38
2023-08-24T00:48:56.807Z,24.39
2023-08-24T00:49:58.223Z,24.41
2023-08-24T00:51:01.662Z,24.37
2023-08-24T00:52:03.329Z,24.35
2023-08-24T00:53:04.804Z,24.34
2023-08-24T00:54:06.409Z,24.30
2023-08-24T00:55:09.072Z,24.31
2023-08-24T00:56:10.508Z,24.29
2023-08-24T00:57:12.255Z,24.31
2023-08-24T00:58:14.937Z,24.32
2023-08-24T00:59:16.381Z,24.33
2023-08-24T01:00:17.858Z,24.34
2023-08-24T01:01:19.483Z,24.36
2023-08-24T01:02:20.991Z,24.37
2023-08-24T01:03:25.635Z,24.35
2023-08-24T01:04:27.049Z,24.37
2023-08-24T01:05:29.272Z,24.44
2023-08-24T01:06:30.636Z,24.42
2023-08-24T01:07:36.770Z,24.45
2023-08-24T01:08:38.325Z,24.44
2023-08-24T01:09:41.145Z,24.44
2023-08-24T01:10:58.592Z,24.43
2023-08-24T01:12:19.319Z,24.40
2023-08-24T01:13:39.956Z,24.43
2023-08-24T01:15:00.263Z,24.40
2023-08-24T01:16:07.193Z,24.42
2023-08-24T01:17:11.876Z,24.44
2023-08-24T01:18:16.923Z,24.44
2023-08-24T01:19:38.175Z,24.40
2023-08-24T01:20:41.359Z,24.39
2023-08-24T01:21:43.532Z,24.41
2023-08-24T01:22:59.290Z,24.41
2023-08-24T01:24:27.069Z,24.40
2023-08-24T01:25:47.290Z,24.40
2023-08-24T01:26:49.904Z,24.41
2023-08-24T01:27:53.444Z,24.41
2023-08-24T01:28:55.393Z,24.42
2023-08-24T01:30:00.229Z,24.44
2023-08-24T01:31:01.860Z,24.46
2023-08-24T01:32:03.301Z,24.46
2023-08-24T01:33:05.282Z,24.45
2023-08-24T01:34:06.668Z,24.44
2023-08-24T01:35:10.184Z,24.44
2023-08-24T01:36:14.783Z,24.44
2023-08-24T01:37:16.216Z,24.43
2023-08-24T01:38:17.891Z,24.42
2023-08-24T01:39:35.644Z,24.41
2023-08-24T01:40:54.334Z,24.40
2023-08-24T01:42:00.741Z,24.39
2023-08-24T01:43:08.032Z,24.36
2023-08-24T01:44:13.133Z,24.39
2023-08-24T01:45:17.437Z,24.40
2023-08-24T01:46:21.740Z,24.42
2023-08-24T01:47:24.950Z,24.48
2023-08-24T01:48:27.029Z,24.46
2023-08-24T01:49:30.237Z,24.48
2023-08-24T01:50:32.158Z,24.48
2023-08-24T01:51:35.552Z,24.49
2023-08-24T01:52:37.214Z,24.51
2023-08-24T01:53:40.155Z,24.50
2023-08-24T01:54:41.633Z,24.50
2023-08-24T01:55:43.018Z,24.48
2023-08-24T01:56:44.426Z,24.46
2023-08-24T01:57:45.883Z,24.44
2023-08-24T01:58:47.228Z,24.44
2023-08-24T01:59:49.726Z,24.32
2023-08-24T02:00:51.177Z,24.37
2023-08-24T02:01:52.509Z,24.42
2023-08-24T02:02:53.917Z,24.36
2023-08-24T02:03:55.387Z,24.35
2023-08-24T02:04:56.743Z,24.30
2023-08-24T02:05:58.511Z,24.30
2023-08-24T02:06:59.848Z,24.30
2023-08-24T02:08:01.177Z,24.27
2023-08-24T02:09:02.519Z,24.23
2023-08-24T02:10:04.980Z,24.21
2023-08-24T02:11:06.948Z,24.17
2023-08-24T02:12:08.449Z,24.15
2023-08-24T02:13:09.805Z,24.13
2023-08-24T02:14:11.189Z,24.13
2023-08-24T02:15:12.878Z,24.08
2023-08-24T02:16:14.266Z,24.09
2023-08-24T02:17:15.665Z,24.02
2023-08-24T02:18:17.061Z,23.96
2023-08-24T02:19:18.415Z,23.96
2023-08-24T02:20:19.751Z,23.96
2023-08-24T02:21:21.082Z,23.92
2023-08-24T02:22:22.457Z,23.94
2023-08-24T02:23:23.770Z,23.91
2023-08-24T02:24:25.104Z,23.90
2023-08-24T02:25:26.477Z,23.87
2023-08-24T02:26:27.806Z,23.87
2023-08-24T02:27:29.205Z,23.87
2023-08-24T02:28:30.715Z,23.87
2023-08-24T02:29:32.108Z,23.90
2023-08-24T02:30:33.432Z,23.88
2023-08-24T02:31:34.879Z,23.89
2023-08-24T02:32:36.283Z,23.89
2023-08-24T02:33:37.639Z,23.89
2023-08-24T02:34:39.050Z,23.88
2023-08-24T02:35:40.434Z,23.86
2023-08-24T02:36:41.770Z,23.85
2023-08-24T02:37:43.145Z,23.82
2023-08-24T02:38:44.460Z,23.80
2023-08-24T02:39:45.758Z,23.75
2023-08-24T02:40:47.123Z,23.71
2023-08-24T02:41:48.524Z,23.65
2023-08-24T02:42:49.938Z,23.69
2023-08-24T02:43:51.309Z,23.77
2023-08-24T02:44:54.228Z,23.76
2023-08-24T02:46:03.274Z,23.76
2023-08-24T02:47:05.510Z,23.74
2023-08-24T02:48:06.999Z,23.72
2023-08-24T02:49:09.012Z,23.65
2023-08-24T02:50:10.690Z,23.63
2023-08-24T02:51:12.033Z,23.59
2023-08-24T02:52:13.352Z,23.53
2023-08-24T02:53:14.734Z,23.51
2023-08-24T02:54:16.062Z,23.50
2023-08-24T02:55:17.379Z,23.49
2023-08-24T02:56:18.758Z,23.51
2023-08-24T02:57:20.081Z,23.54
2023-08-24T02:58:21.586Z,23.55
2023-08-24T02:59:22.979Z,23.57
2023-08-24T03:00:24.305Z,23.60
2023-08-24T03:01:25.636Z,23.63
2023-08-24T03:02:27.096Z,23.65
2023-08-24T03:03:28.563Z,23.65
2023-08-24T03:04:30.481Z,23.66
2023-08-24T03:05:31.811Z,23.67
2023-08-24T03:06:33.342Z,23.64
2023-08-24T03:07:34.657Z,23.62
2023-08-24T03:08:36.083Z,23.62
2023-08-24T03:09:37.454Z,23.63
2023-08-24T03:10:38.867Z,23.62
2023-08-24T03:11:42.097Z,23.59
2023-08-24T03:12:43.429Z,23.59
2023-08-24T03:13:45.178Z,23.61
2023-08-24T03:14:46.882Z,23.59
2023-08-24T03:15:48.710Z,23.60
2023-08-24T03:16:50.099Z,23.61
2023-08-24T03:17:52.762Z,23.57
2023-08-24T03:18:54.296Z,23.57
2023-08-24T03:19:55.633Z,23.56
2023-08-24T03:20:57.070Z,23.48
2023-08-24T03:21:58.401Z,23.47
2023-08-24T03:22:59.753Z,23.43
2023-08-24T03:24:01.325Z,23.43
2023-08-24T03:25:02.821Z,23.43
2023-08-24T03:26:04.192Z,23.41
2023-08-24T03:27:05.612Z,23.40
2023-08-24T03:28:07.905Z,23.39
2023-08-24T03:29:09.304Z,23.40
2023-08-24T03:30:11.159Z,23.41
2023-08-24T03:31:12.538Z,23.40
2023-08-24T03:32:13.980Z,23.38
2023-08-24T03:33:15.401Z,23.37
2023-08-24T03:34:16.797Z,23.39
2023-08-24T03:35:18.286Z,23.39
2023-08-24T03:36:19.627Z,23.38
2023-08-24T03:37:21.162Z,23.37
2023-08-24T03:38:22.525Z,23.37
2023-08-24T03:39:23.889Z,23.39
2023-08-24T03:40:25.308Z,23.42
2023-08-24T03:41:26.646Z,23.44
2023-08-24T03:42:28.047Z,23.46
2023-08-24T03:43:33.241Z,23.48
2023-08-24T03:44:35.140Z,23.50
2023-08-24T03:45:36.557Z,23.54
2023-08-24T03:46:39.841Z,23.59
2023-08-24T03:47:41.363Z,23.62
2023-08-24T03:48:42.773Z,23.61
2023-08-24T03:49:44.624Z,23.62
2023-08-24T03:50:46.791Z,23.64
2023-08-24T03:51:49.414Z,23.67
2023-08-24T03:52:51.647Z,23.69
2023-08-24T03:53:53.009Z,23.71
2023-08-24T03:54:54.659Z,23.70
2023-08-24T03:55:56.073Z,23.70
2023-08-24T03:56:57.474Z,23.73
2023-08-24T03:57:58.812Z,23.73
2023-08-24T03:59:01.524Z,23.76
2023-08-24T04:00:04.235Z,23.80
2023-08-24T04:01:15.229Z,23.83
2023-08-24T04:02:17.456Z,23.88
2023-08-24T04:03:19.064Z,23.88
2023-08-24T04:04:20.511Z,23.90
2023-08-24T04:05:21.924Z,23.92
2023-08-24T04:06:23.551Z,23.93
2023-08-24T04:07:24.937Z,23.94
2023-08-24T04:08:26.278Z,23.94
2023-08-24T04:09:27.615Z,23.94
2023-08-24T04:10:30.312Z,23.95
2023-08-24T04:11:33.414Z,23.97
2023-08-24T04:12:34.852Z,24.00
2023-08-24T04:13:36.214Z,24.03
2023-08-24T04:14:37.594Z,24.03
2023-08-24T04:15:38.947Z,24.05
2023-08-24T04:16:40.971Z,24.06
2023-08-24T04:17:44.556Z,24.06
2023-08-24T04:18:46.248Z,24.07
2023-08-24T04:19:47.731Z,24.08
2023-08-24T04:20:49.090Z,24.10
2023-08-24T04:21:50.431Z,24.08
2023-08-24T04:22:51.806Z,24.08
2023-08-24T04:23:54.016Z,24.10
2023-08-24T04:24:55.346Z,24.08
2023-08-24T04:25:56.896Z,24.11
2023-08-24T04:26:58.245Z,24.13
2023-08-24T04:27:59.585Z,24.13
2023-08-24T04:29:00.974Z,24.13
2023-08-24T04:30:02.312Z,24.17
2023-08-24T04:31:03.648Z,24.16
2023-08-24T04:32:05.121Z,24.14
2023-08-24T04:33:06.496Z,24.17
2023-08-24T04:34:07.894Z,24.19
2023-08-24T04:35:09.515Z,24.15
2023-08-24T04:36:10.871Z,24.15
2023-08-24T04:37:12.205Z,24.19
2023-08-24T04:38:13.579Z,24.18
2023-08-24T04:39:14.915Z,24.15
2023-08-24T04:40:16.270Z,24.23
2023-08-24T04:41:17.686Z,24.18
2023-08-24T04:42:19.008Z,24.21
2023-08-24T04:43:21.787Z,24.17
2023-08-24T04:44:23.762Z,24.14
2023-08-24T04:45:25.209Z,24.14
2023-08-24T04:46:26.772Z,24.12
2023-08-24T04:47:28.404Z,24.14
2023-08-24T04:48:29.754Z,24.11
2023-08-24T04:49:31.506Z,24.07
2023-08-24T04:50:32.927Z,24.08
2023-08-24T04:51:34.279Z,24.09
2023-08-24T04:52:35.595Z,24.07
2023-08-24T04:53:36.995Z,24.02
2023-08-24T04:54:38.330Z,23.98
2023-08-24T04:55:39.696Z,23.97
2023-08-24T04:56:41.086Z,23.90
2023-08-24T04:57:42.415Z,23.92
2023-08-24T04:58:56.906Z,23.96
2023-08-24T04:59:58.286Z,23.99
2023-08-24T05:00:59.667Z,24.00
2023-08-24T05:02:01.069Z,24.03
2023-08-24T05:03:06.987Z,24.05
2023-08-24T05:04:08.344Z,24.11
2023-08-24T05:05:10.182Z,24.16
2023-08-24T05:06:11.536Z,24.19
2023-08-24T05:07:12.912Z,24.21
2023-08-24T05:08:14.277Z,24.24
2023-08-24T05:09:15.634Z,24.32
2023-08-24T05:10:17.113Z,24.37
2023-08-24T05:11:20.434Z,24.46
2023-08-24T05:12:21.832Z,24.51
2023-08-24T05:13:23.168Z,24.54
2023-08-24T05:14:24.481Z,24.62
2023-08-24T05:15:26.295Z,24.61
2023-08-24T05:16:27.662Z,24.70
2023-08-24T05:17:29.370Z,24.59
2023-08-24T05:18:30.815Z,24.60
2023-08-24T05:19:32.313Z,24.70
2023-08-24T05:20:33.786Z,24.72
2023-08-24T05:21:35.351Z,24.77
2023-08-24T05:22:37.534Z,24.82
2023-08-24T05:23:38.878Z,24.86
2023-08-24T05:24:40.324Z,24.91
2023-08-24T05:25:44.490Z,24.94
2023-08-24T05:26:47.592Z,24.93
2023-08-24T05:27:49.409Z,24.91
2023-08-24T05:28:51.359Z,24.88
2023-08-24T05:29:52.695Z,24.92
2023-08-24T05:30:54.580Z,24.94
2023-08-24T05:31:55.934Z,25.00
2023-08-24T05:32:57.425Z,25.04
2023-08-24T05:33:58.845Z,25.13
2023-08-24T05:35:00.184Z,25.13
2023-08-24T05:36:01.515Z,25.14
2023-08-24T05:37:02.867Z,25.12
2023-08-24T05:38:04.549Z,25.20
2023-08-24T05:39:06.808Z,25.24
2023-08-24T05:40:08.946Z,25.23
2023-08-24T05:41:10.295Z,25.36
2023-08-24T05:42:11.861Z,25.41
2023-08-24T05:43:13.636Z,25.51
2023-08-24T05:44:14.982Z,25.45
2023-08-24T05:45:16.435Z,25.45
2023-08-24T05:46:17.933Z,25.67
2023-08-24T05:47:19.359Z,25.68
2023-08-24T05:48:20.730Z,25.72
2023-08-24T05:49:22.198Z,25.73
2023-08-24T05:50:23.604Z,25.82
2023-08-24T05:51:24.937Z,25.80
2023-08-24T05:52:26.568Z,25.85
2023-08-24T05:53:27.987Z,25.77
2023-08-24T05:54:29.377Z,25.85
2023-08-24T05:55:30.724Z,25.90
2023-08-24T05:56:32.291Z,25.90
2023-08-24T05:57:33.626Z,25.91
2023-08-24T05:58:34.988Z,25.99
2023-08-24T05:59:36.286Z,26.03
2023-08-24T06:00:37.732Z,26.07
2023-08-24T06:01:39.679Z,26.12
2023-08-24T06:02:41.246Z,26.18
2023-08-24T06:03:42.595Z,26.21
2023-08-24T06:04:43.940Z,26.30
2023-08-24T06:05:45.263Z,26.39
2023-08-24T06:06:46.641Z,26.44
2023-08-24T06:07:49.852Z,26.53
2023-08-24T06:08:51.461Z,26.56
2023-08-24T06:09:52.819Z,26.60
2023-08-24T06:10:54.155Z,26.55
2023-08-24T06:11:55.468Z,26.64
2023-08-24T06:12:56.780Z,26.71
2023-08-24T06:13:58.166Z,26.81
2023-08-24T06:15:01.640Z,26.88
2023-08-24T06:16:03.021Z,26.86
2023-08-24T06:17:04.414Z,26.99
2023-08-24T06:18:05.829Z,26.98
2023-08-24T06:19:07.222Z,27.13
2023-08-24T06:20:09.272Z,27.27
2023-08-24T06:21:10.623Z,27.47
2023-08-24T06:22:11.979Z,27.55
2023-08-24T06:23:13.318Z,27.62
2023-08-24T06:24:14.664Z,27.73
2023-08-24T06:25:16.108Z,27.83
2023-08-24T06:26:18.737Z,27.96
2023-08-24T06:27:20.072Z,27.90
2023-08-24T06:28:21.407Z,27.92
2023-08-24T06:29:22.868Z,27.98
2023-08-24T06:30:24.166Z,28.13
2023-08-24T06:31:25.578Z,28.23
2023-08-24T06:32:27.123Z,28.24
2023-08-24T06:33:29.186Z,28.25
2023-08-24T06:34:31.051Z,28.21
2023-08-24T06:35:35.669Z,28.26
2023-08-24T06:36:36.998Z,28.23
2023-08-24T06:37:38.324Z,28.26
2023-08-24T06:38:39.679Z,28.23
2023-08-24T06:39:41.033Z,28.22
2023-08-24T06:40:42.338Z,28.25
2023-08-24T06:41:43.732Z,28.20
2023-08-24T06:42:45.049Z,28.08
2023-08-24T06:43:46.418Z,27.97
2023-08-24T06:44:48.649Z,27.88
2023-08-24T06:45:50.044Z,27.83
2023-08-24T06:46:51.597Z,27.79
2023-08-24T06:47:53.150Z,27.61
2023-08-24T06:48:54.852Z,27.51
2023-08-24T06:49:56.216Z,27.48
2023-08-24T06:50:57.573Z,27.50
2023-08-24T06:51:58.973Z,27.42
2023-08-24T06:53:00.456Z,27.25
2023-08-24T06:54:01.836Z,27.23
2023-08-24T06:55:04.402Z,27.31
2023-08-24T06:56:05.708Z,27.27
2023-08-24T06:57:07.038Z,27.30
2023-08-24T06:58:08.399Z,27.30
2023-08-24T06:59:09.749Z,27.24
2023-08-24T07:00:11.593Z,27.25
2023-08-24T07:01:13.000Z,27.23
2023-08-24T07:02:14.969Z,27.30
2023-08-24T07:03:16.338Z,27.20
2023-08-24T07:04:17.692Z,27.14
2023-08-24T07:05:19.155Z,27.23
2023-08-24T07:06:20.494Z,27.30
2023-08-24T07:07:21.804Z,27.27
2023-08-24T07:08:23.135Z,27.42
2023-08-24T07:09:24.471Z,27.44
2023-08-24T07:10:25.897Z,27.60
2023-08-24T07:11:27.238Z,27.59
2023-08-24T07:12:29.329Z,27.70
2023-08-24T07:13:30.959Z,28.05
2023-08-24T07:14:32.305Z,28.30
2023-08-24T07:15:33.772Z,28.44
2023-08-24T07:16:35.193Z,28.12
2023-08-24T07:17:36.535Z,28.04
2023-08-24T07:18:37.984Z,28.00
2023-08-24T07:19:39.298Z,27.96
2023-08-24T07:20:40.919Z,27.78
2023-08-24T07:21:42.276Z,27.74
2023-08-24T07:22:43.633Z,27.72
2023-08-24T07:23:44.964Z,27.43
2023-08-24T07:24:47.018Z,27.60
2023-08-24T07:25:48.442Z,27.54
2023-08-24T07:26:49.784Z,27.66
2023-08-24T07:27:51.445Z,27.69
2023-08-24T07:28:53.383Z,27.77
2023-08-24T07:29:54.805Z,27.83
2023-08-24T07:30:56.314Z,27.90
2023-08-24T07:31:57.941Z,27.89
2023-08-24T07:32:59.492Z,27.93
2023-08-24T07:34:01.272Z,27.86
2023-08-24T07:35:02.890Z,27.89
2023-08-24T07:36:04.516Z,27.95
2023-08-24T07:37:06.009Z,27.99
2023-08-24T07:38:07.315Z,27.98
2023-08-24T07:39:08.770Z,28.08
2023-08-24T07:40:10.678Z,28.14
2023-08-24T07:41:11.993Z,28.17
2023-08-24T07:42:13.441Z,28.19
2023-08-24T07:43:14.869Z,28.18
2023-08-24T07:44:16.217Z,28.39
2023-08-24T07:45:18.682Z,28.55
2023-08-24T07:46:20.077Z,28.57
2023-08-24T07:47:21.425Z,28.58
2023-08-24T07:48:22.751Z,28.70
2023-08-24T07:49:24.104Z,28.66
2023-08-24T07:50:25.416Z,28.65
2023-08-24T07:51:26.770Z,28.72
2023-08-24T07:52:28.110Z,28.74
2023-08-24T07:53:29.685Z,28.90
2023-08-24T07:54:31.004Z,28.84
2023-08-24T07:55:32.434Z,28.83
2023-08-24T07:56:34.131Z,28.88
2023-08-24T07:57:36.084Z,28.81
2023-08-24T07:58:37.656Z,28.86
2023-08-24T07:59:39.003Z,28.96
2023-08-24T08:00:40.384Z,29.00
2023-08-24T08:01:41.865Z,28.86
2023-08-24T08:02:43.269Z,28.98
2023-08-24T08:03:44.614Z,28.67
2023-08-24T08:04:46.105Z,28.77
2023-08-24T08:05:48.244Z,28.68
2023-08-24T08:06:49.580Z,28.72
2023-08-24T08:07:51.296Z,28.74
2023-08-24T08:08:52.706Z,28.91
2023-08-24T08:09:54.070Z,28.72
2023-08-24T08:11:02.770Z,28.22
2023-08-24T08:12:04.533Z,28.10
2023-08-24T08:13:05.847Z,28.18
2023-08-24T08:14:07.257Z,28.42
2023-08-24T08:15:08.747Z,28.60
2023-08-24T08:16:10.571Z,28.71
2023-08-24T08:17:12.307Z,28.77
2023-08-24T08:18:13.682Z,28.80
2023-08-24T08:19:15.068Z,28.81
2023-08-24T08:20:16.456Z,28.62
2023-08-24T08:21:21.730Z,28.72
2023-08-24T08:22:24.384Z,28.70
2023-08-24T08:23:25.879Z,28.84
2023-08-24T08:24:27.191Z,28.86
2023-08-24T08:25:28.501Z,28.79
2023-08-24T08:26:29.905Z,29.01
2023-08-24T08:27:31.313Z,29.09
2023-08-24T08:28:32.666Z,29.02
2023-08-24T08:29:34.083Z,29.10
2023-08-24T08:30:35.498Z,29.12
2023-08-24T08:31:37.017Z,29.12
2023-08-24T08:32:38.430Z,29.25
2023-08-24T08:33:40.025Z,29.19
2023-08-24T08:34:41.373Z,29.25
2023-08-24T08:35:42.790Z,29.35
2023-08-24T08:36:44.117Z,29.50
2023-08-24T08:37:46.293Z,29.53
2023-08-24T08:38:47.664Z,29.57
2023-08-24T08:39:49.076Z,29.60
2023-08-24T08:40:51.186Z,29.61
2023-08-24T08:41:52.574Z,29.70
2023-08-24T08:42:53.983Z,29.74
2023-08-24T08:43:56.408Z,29.77
2023-08-24T08:44:58.596Z,29.78
2023-08-24T08:46:01.201Z,29.78
2023-08-24T08:47:02.956Z,29.92
2023-08-24T08:48:05.055Z,29.85
2023-08-24T08:49:07.905Z,29.92
2023-08-24T08:50:09.782Z,29.97
2023-08-24T08:51:12.677Z,29.86
2023-08-24T08:52:14.028Z,29.83
2023-08-24T08:53:15.400Z,29.74
2023-08-24T08:54:16.741Z,29.95
2023-08-24T08:55:18.985Z,30.01
2023-08-24T08:56:21.185Z,29.74
2023-08-24T08:57:24.779Z,29.38
2023-08-24T08:58:28.235Z,29.43
2023-08-24T08:59:29.827Z,29.58
2023-08-24T09:00:32.791Z,29.65
2023-08-24T09:01:34.111Z,29.79
2023-08-24T09:02:36.237Z,29.84
2023-08-24T09:03:40.100Z,29.77
2023-08-24T09:04:45.440Z,29.51
2023-08-24T09:05:47.040Z,29.68
2023-08-24T09:06:48.386Z,29.78
2023-08-24T09:07:50.195Z,29.84
2023-08-24T09:08:53.365Z,29.94
2023-08-24T09:09:54.740Z,29.96
2023-08-24T09:10:56.106Z,30.04
2023-08-24T09:11:58.503Z,30.12
2023-08-24T09:12:59.837Z,29.94
2023-08-24T09:14:01.187Z,29.97
2023-08-24T09:15:07.349Z,29.93
2023-08-24T09:16:10.593Z,30.05
2023-08-24T09:17:19.939Z,30.11
2023-08-24T09:18:21.385Z,30.26
2023-08-24T09:19:32.150Z,30.22
2023-08-24T09:20:34.649Z,30.30
2023-08-24T09:21:39.847Z,30.29
2023-08-24T09:22:41.219Z,30.31
2023-08-24T09:23:53.046Z,30.51
2023-08-24T09:24:54.379Z,30.46
2023-08-24T09:25:55.790Z,30.30
2023-08-24T09:26:57.463Z,30.32
2023-08-24T09:28:08.372Z,30.49
2023-08-24T09:29:15.037Z,30.39
2023-08-24T09:30:16.419Z,30.43
2023-08-24T09:31:17.832Z,30.41
2023-08-24T09:32:24.525Z,30.27
2023-08-24T09:33:25.947Z,30.33
2023-08-24T09:34:27.305Z,30.34
2023-08-24T09:35:28.768Z,30.53
2023-08-24T09:36:33.781Z,30.65
2023-08-24T09:37:36.097Z,30.65
2023-08-24T09:38:37.610Z,30.52
2023-08-24T09:39:38.944Z,30.33
2023-08-24T09:40:46.099Z,30.52
2023-08-24T09:41:52.692Z,30.56
2023-08-24T09:42:54.034Z,30.61
2023-08-24T09:43:55.391Z,30.59
2023-08-24T09:45:03.872Z,30.71
2023-08-24T09:46:05.276Z,30.84
2023-08-24T09:47:10.542Z,30.71
2023-08-24T09:48:11.893Z,30.73
2023-08-24T09:49:13.522Z,30.77
2023-08-24T09:50:14.893Z,31.01
2023-08-24T09:51:16.787Z,30.75
2023-08-24T09:52:19.012Z,30.76
2023-08-24T09:53:22.002Z,30.82
2023-08-24T09:54:27.932Z,30.85
2023-08-24T09:55:32.448Z,30.94
2023-08-24T09:56:36.506Z,31.01
2023-08-24T09:57:39.989Z,30.96
2023-08-24T09:58:43.658Z,30.87
2023-08-24T10:01:00.591Z,31.08
2023-08-24T10:02:03.351Z,31.11
2023-08-24T10:03:05.882Z,31.22
2023-08-24T10:04:09.704Z,31.42
2023-08-24T10:05:21.818Z,31.52
2023-08-24T10:06:33.114Z,31.56
2023-08-24T10:07:37.529Z,31.64
2023-08-24T10:08:44.670Z,31.62
2023-08-24T10:10:03.180Z,31.67
2023-08-24T10:11:07.039Z,31.65
2023-08-24T10:12:09.568Z,31.76
2023-08-24T10:13:21.242Z,31.96
2023-08-24T10:14:32.567Z,31.97
2023-08-24T10:15:35.738Z,31.96
2023-08-24T10:16:38.210Z,32.03
2023-08-24T10:17:40.994Z,32.02
2023-08-24T10:18:43.127Z,32.03
2023-08-24T10:19:45.280Z,32.13
2023-08-24T10:20:50.274Z,32.26
2023-08-24T10:21:54.709Z,32.27
2023-08-24T10:23:00.898Z,32.39
2023-08-24T10:24:04.513Z,32.51
2023-08-24T10:25:08.452Z,32.54
2023-08-24T10:26:11.471Z,32.62
2023-08-24T10:27:14.770Z,32.54
2023-08-24T10:28:16.208Z,32.62
2023-08-24T10:29:18.126Z,32.75
2023-08-24T10:30:24.876Z,32.75
2023-08-24T10:31:27.630Z,32.80
2023-08-24T10:32:29.829Z,32.77
2023-08-24T10:33:33.396Z,32.95
2023-08-24T10:34:36.007Z,32.98
2023-08-24T10:35:37.869Z,33.07
2023-08-24T10:36:41.215Z,33.15
2023-08-24T10:37:45.369Z,33.10
2023-08-24T10:38:47.701Z,33.04
2023-08-24T10:39:50.138Z,33.14
2023-08-24T10:40:52.945Z,33.08
2023-08-24T10:41:54.983Z,33.02
2023-08-24T10:42:56.646Z,33.09
2023-08-24T10:44:07.319Z,33.20
2023-08-24T10:45:09.144Z,33.24
2023-08-24T10:46:15.814Z,33.27
2023-08-24T10:47:21.337Z,33.28
2023-08-24T10:48:27.616Z,33.57
2023-08-24T10:49:30.748Z,33.53
2023-08-24T10:50:32.344Z,33.75
2023-08-24T10:51:44.309Z,33.82
2023-08-24T10:52:45.712Z,33.87
2023-08-24T10:53:54.962Z,33.88
2023-08-24T10:54:57.287Z,33.75
2023-08-24T10:56:12.730Z,34.02
2023-08-24T10:57:21.403Z,34.24
2023-08-24T10:58:23.011Z,34.27
2023-08-24T10:59:28.448Z,34.12
2023-08-24T11:00:34.246Z,33.75
2023-08-24T11:01:39.677Z,33.92
2023-08-24T11:02:47.258Z,34.11
2023-08-24T11:03:56.708Z,33.88
2023-08-24T11:05:15.296Z,34.11
2023-08-24T11:06:26.495Z,34.20
2023-08-24T11:07:29.133Z,34.27
2023-08-24T11:08:47.172Z,34.35
2023-08-24T11:09:49.953Z,34.46
2023-08-24T11:10:53.747Z,34.46
2023-08-24T11:12:06.324Z,34.40
2023-08-24T11:13:13.707Z,34.43
2023-08-24T11:14:20.253Z,34.51
2023-08-24T11:15:31.123Z,34.57
2023-08-24T11:16:48.917Z,34.52
2023-08-24T11:18:15.936Z,34.57
2023-08-24T11:19:17.432Z,34.59
2023-08-24T11:20:22.730Z,34.47
2023-08-24T11:21:24.361Z,34.54
2023-08-24T11:22:26.636Z,34.44
2023-08-24T11:23:29.042Z,34.67
2023-08-24T11:24:30.655Z,34.78
2023-08-24T11:25:36.601Z,34.78
2023-08-24T11:26:47.780Z,34.89
2023-08-24T11:27:49.574Z,35.02
2023-08-24T11:28:54.397Z,35.05
2023-08-24T11:30:00.702Z,35.05
2023-08-24T11:31:03.590Z,35.17
2023-08-24T11:32:05.258Z,35.23
2023-08-24T11:33:06.884Z,35.26
2023-08-24T11:34:08.896Z,35.23
2023-08-24T11:35:12.416Z,35.29
2023-08-24T11:36:13.741Z,35.43
2023-08-24T11:37:21.332Z,35.40
2023-08-24T11:38:24.202Z,35.40
2023-08-24T11:39:26.503Z,34.98
2023-08-24T11:40:28.634Z,34.90
2023-08-24T11:41:29.967Z,34.92
2023-08-24T11:42:37.717Z,35.06
2023-08-24T11:43:39.311Z,35.22
2023-08-24T11:44:48.433Z,35.09
2023-08-24T11:45:49.934Z,35.21
2023-08-24T11:46:51.702Z,35.25
2023-08-24T11:47:53.282Z,35.41
2023-08-24T11:48:54.681Z,35.59
2023-08-24T11:49:56.297Z,35.68
2023-08-24T11:51:01.159Z,35.68
2023-08-24T11:52:02.838Z,35.69
2023-08-24T11:53:07.986Z,35.75
2023-08-24T11:54:09.650Z,35.86
2023-08-24T11:55:11.791Z,35.98
2023-08-24T11:56:14.133Z,36.00
2023-08-24T11:57:15.491Z,36.04
2023-08-24T11:58:17.295Z,35.95
2023-08-24T11:59:19.056Z,35.58
2023-08-24T12:00:24.114Z,35.85
2023-08-24T12:01:26.400Z,35.95
2023-08-24T12:02:28.567Z,35.93
2023-08-24T12:03:29.995Z,36.00
2023-08-24T12:04:42.000Z,36.06
2023-08-24T12:05:43.430Z,36.28
2023-08-24T12:06:45.185Z,36.35
2023-08-24T12:07:46.866Z,36.34
2023-08-24T12:08:48.999Z,36.22
2023-08-24T12:09:50.770Z,36.33
2023-08-24T12:10:52.170Z,36.34
2023-08-24T12:11:56.888Z,36.38
2023-08-24T12:13:06.868Z,36.43
2023-08-24T12:14:08.300Z,36.20
2023-08-24T12:15:17.568Z,36.13
2023-08-24T12:16:20.550Z,36.35
2023-08-24T12:17:22.602Z,36.42
2023-08-24T12:18:23.983Z,36.57
2023-08-24T12:19:25.428Z,36.67
2023-08-24T12:20:26.742Z,36.65
2023-08-24T12:21:30.015Z,36.59
2023-08-24T12:22:31.916Z,36.58
2023-08-24T12:23:34.648Z,36.26
2023-08-24T12:24:36.021Z,36.23
2023-08-24T12:25:46.626Z,36.20
2023-08-24T12:26:56.892Z,36.19
2023-08-24T12:28:11.938Z,36.39
2023-08-24T12:29:13.523Z,36.46
2023-08-24T12:30:14.871Z,36.55
2023-08-24T12:31:19.513Z,36.61
2023-08-24T12:32:22.503Z,36.67
2023-08-24T12:33:29.482Z,36.75
2023-08-24T12:34:30.986Z,36.73
2023-08-24T12:35:33.748Z,36.79
2023-08-24T12:36:37.478Z,36.89
2023-08-24T12:37:39.558Z,36.99
2023-08-24T12:38:41.119Z,37.10
2023-08-24T12:39:42.750Z,37.23
2023-08-24T12:40:45.614Z,37.21
2023-08-24T12:41:48.478Z,37.16
2023-08-24T12:42:50.227Z,37.25
2023-08-24T12:43:54.877Z,37.04
2023-08-24T12:44:56.265Z,36.87
2023-08-24T12:45:57.646Z,36.99
2023-08-24T12:47:03.471Z,36.98
2023-08-24T12:48:05.939Z,37.06
2023-08-24T12:49:08.433Z,37.24
2023-08-24T12:50:09.988Z,37.41
2023-08-24T12:51:12.595Z,37.62
2023-08-24T12:52:13.899Z,37.76
2023-08-24T12:53:15.240Z,37.84
2023-08-24T12:54:16.817Z,37.96
2023-08-24T12:55:19.241Z,38.02
2023-08-24T12:56:21.075Z,37.99
2023-08-24T12:57:22.417Z,37.99
2023-08-24T12:58:25.227Z,38.00
2023-08-24T12:59:27.288Z,37.87
2023-08-24T13:00:28.769Z,37.84
2023-08-24T13:01:30.565Z,37.92
2023-08-24T13:02:39.280Z,38.05
2023-08-24T13:03:42.505Z,38.06
2023-08-24T13:04:46.593Z,38.11
2023-08-24T13:05:48.668Z,38.14
2023-08-24T13:06:50.006Z,38.28
2023-08-24T13:07:53.161Z,38.25
2023-08-24T13:08:55.048Z,38.26
2023-08-24T13:09:56.623Z,38.20
2023-08-24T13:10:59.580Z,38.14
2023-08-24T13:12:00.895Z,38.18
2023-08-24T13:13:04.022Z,38.24
2023-08-24T13:14:05.350Z,38.20
2023-08-24T13:15:07.570Z,38.30
2023-08-24T13:16:08.942Z,38.13
2023-08-24T13:17:10.460Z,38.28
2023-08-24T13:18:13.417Z,38.38
2023-08-24T13:19:14.786Z,38.40
2023-08-24T13:20:17.441Z,38.50
2023-08-24T13:21:19.048Z,38.62
2023-08-24T13:22:20.378Z,38.78
2023-08-24T13:23:21.687Z,38.81
2023-08-24T13:24:23.360Z,38.72
2023-08-24T13:25:24.674Z,38.78
2023-08-24T13:26:26.315Z,38.83
2023-08-24T13:27:27.937Z,38.82
2023-08-24T13:28:29.626Z,38.91
2023-08-24T13:29:32.564Z,39.00